Time;durP1;ratioP1;P1;durP2;ratioP2;P2;SDS_P1;SDS_P2;PMS_P1;PMS_P2;Temp;Humidity;BMP_temperature;BMP_pressure;BME280_temperature;BME280_humidity;BME280_pressure;Samples;Min_cycle;Max_cycle;Signal;HPM_P1;HPM_P2
2023/07/27 00:01:28;;;;;;;1999.90;999.90;;;;;;;10.53;100.00;94267.59;5008518;28;20217;-59
2023/07/27 00:03:54;;;;;;;1999.90;999.90;;;;;;;10.51;100.00;94269.97;5008128;28;20197;-59
2023/07/27 00:06:20;;;;;;;1999.90;999.90;;;;;;;10.47;100.00;94269.31;5008298;28;20202;-58
2023/07/27 00:08:45;;;;;;;1999.90;999.90;;;;;;;10.45;100.00;94266.25;5007822;28;20223;-60
2023/07/27 00:11:11;;;;;;;1999.90;999.90;;;;;;;10.41;100.00;94265.59;5007806;28;20205;-59
2023/07/27 00:13:36;;;;;;;1999.90;999.90;;;;;;;10.38;100.00;94258.25;5007897;28;20193;-59
2023/07/27 00:16:01;;;;;;;1999.90;999.90;;;;;;;10.38;100.00;94256.28;5007794;28;20247;-59
2023/07/27 00:18:27;;;;;;;1999.90;999.90;;;;;;;10.38;100.00;94255.53;5008128;28;20265;-59
2023/07/27 00:20:52;;;;;;;1999.90;999.90;;;;;;;10.34;100.00;94252.13;5007727;28;20296;-59
2023/07/27 00:23:17;;;;;;;1999.90;999.90;;;;;;;10.34;100.00;94254.84;5007870;28;20195;-59
2023/07/27 00:25:43;;;;;;;1999.90;999.90;;;;;;;10.33;100.00;94247.84;5008149;28;20283;-59
2023/07/27 00:28:08;;;;;;;1999.90;999.90;;;;;;;10.30;100.00;94248.72;5007528;28;20207;-59
2023/07/27 00:30:33;;;;;;;1999.90;999.90;;;;;;;10.26;100.00;94253.50;5007503;28;20215;-59
2023/07/27 00:32:59;;;;;;;1999.90;999.90;;;;;;;10.22;100.00;94247.34;5007930;28;20206;-59
2023/07/27 00:35:24;;;;;;;1999.90;999.90;;;;;;;10.22;100.00;94255.53;5007924;28;20190;-61
2023/07/27 00:37:49;;;;;;;1999.90;999.90;;;;;;;10.18;100.00;94263.03;5007574;28;20220;-59
2023/07/27 00:40:17;;;;;;;1999.90;999.90;;;;;;;10.16;100.00;94262.72;5007152;28;20228;-59
2023/07/27 00:42:42;;;;;;;1999.90;999.90;;;;;;;10.14;100.00;94260.41;5007174;28;20192;-59
2023/07/27 00:45:08;;;;;;;1999.90;999.90;;;;;;;10.09;100.00;94256.22;5007087;28;20268;-58
2023/07/27 00:47:33;;;;;;;1999.90;999.90;;;;;;;10.05;100.00;94258.28;5006748;28;20201;-59
2023/07/27 00:49:59;;;;;;;1999.90;999.90;;;;;;;10.03;100.00;94266.09;5007240;28;20218;-59
2023/07/27 00:52:24;;;;;;;1999.90;999.90;;;;;;;10.00;100.00;94253.31;5007137;28;20271;-59
2023/07/27 00:54:54;;;;;;;1999.90;999.90;;;;;;;9.98;100.00;94254.91;5007243;28;20212;-59
2023/07/27 00:57:20;;;;;;;1999.90;999.90;;;;;;;9.95;100.00;94256.53;5006965;28;20270;-59
2023/07/27 00:59:48;;;;;;;1999.90;999.90;;;;;;;9.95;100.00;94255.81;5006836;28;20210;-59
2023/07/27 01:02:14;;;;;;;1999.90;999.90;;;;;;;9.94;100.00;94260.47;5007402;28;20211;-59
2023/07/27 01:04:39;;;;;;;1999.90;999.90;;;;;;;9.91;100.00;94260.56;5007113;28;20201;-59
2023/07/27 01:07:05;;;;;;;1999.90;999.90;;;;;;;9.89;100.00;94263.72;5007166;28;20272;-59
2023/07/27 01:09:31;;;;;;;1999.90;999.90;;;;;;;9.86;100.00;94253.66;5007442;28;20200;-59
2023/07/27 01:12:06;;;;;;;1999.90;999.90;;;;;;;9.86;100.00;94248.22;5006878;28;20228;-59
2023/07/27 01:14:58;;;;;;;1999.90;999.90;;;;;;;9.84;100.00;94247.84;5007234;28;20195;-59
2023/07/27 01:17:32;;;;;;;1999.90;999.90;;;;;;;9.81;100.00;94243.25;5004713;28;20235;-59
2023/07/27 01:20:11;;;;;;;1999.90;999.90;;;;;;;9.79;100.00;94245.66;5006432;28;20222;-59
2023/07/27 01:23:03;;;;;;;1999.90;999.90;;;;;;;9.78;100.00;94230.50;5006984;28;20205;-59
2023/07/27 01:26:07;;;;;;;1999.90;999.90;;;;;;;9.78;100.00;94235.94;5007101;28;20204;-60
2023/07/27 01:28:59;;;;;;;1999.90;999.90;;;;;;;9.76;100.00;94227.41;4984953;28;20211;-59
2023/07/27 01:31:31;;;;;;;1999.90;999.90;;;;;;;9.73;100.00;94236.44;5006799;28;20179;-59
2023/07/27 01:33:59;;;;;;;1999.90;999.90;;;;;;;9.74;100.00;94234.50;5006121;28;20203;-60
2023/07/27 01:36:28;;;;;;;1999.90;999.90;;;;;;;9.74;100.00;94235.28;5006761;28;20191;-59
2023/07/27 01:38:59;;;;;;;1999.90;999.90;;;;;;;9.70;100.00;94229.09;5006478;28;20200;-59
2023/07/27 01:41:26;;;;;;;1999.90;999.90;;;;;;;9.67;100.00;94227.25;5006662;28;20210;-59
2023/07/27 01:43:52;;;;;;;1999.90;999.90;;;;;;;9.65;100.00;94226.91;5006210;28;20319;-59
2023/07/27 01:46:18;;;;;;;1999.90;999.90;;;;;;;9.62;100.00;94225.03;5006152;28;20208;-59
2023/07/27 01:48:45;;;;;;;1999.90;999.90;;;;;;;9.60;100.00;94230.16;5006198;28;20195;-59
2023/07/27 01:51:12;;;;;;;1999.90;999.90;;;;;;;9.59;100.00;94228.59;5005982;28;20215;-59
2023/07/27 01:53:40;;;;;;;1999.90;999.90;;;;;;;9.60;100.00;94227.41;5006022;28;20203;-60
2023/07/27 01:56:06;;;;;;;1999.90;999.90;;;;;;;9.56;100.00;94229.47;5006351;28;20175;-60
2023/07/27 01:58:35;;;;;;;1999.90;999.90;;;;;;;9.54;100.00;94226.38;5006425;28;20236;-60
2023/07/27 02:01:01;;;;;;;1999.90;999.90;;;;;;;9.53;100.00;94224.84;5006189;28;20262;-59
2023/07/27 02:03:27;;;;;;;1999.90;999.90;;;;;;;9.48;100.00;94228.06;5005196;28;20223;-61
2023/07/27 02:05:52;;;;;;;1999.90;999.90;;;;;;;9.50;100.00;94222.97;5006242;28;20203;-59
2023/07/27 02:08:17;;;;;;;1999.90;999.90;;;;;;;9.48;100.00;94227.31;5005771;28;20199;-60
2023/07/27 02:10:50;;;;;;;1999.90;999.90;;;;;;;9.47;100.00;94220.34;5005851;28;20388;-60
2023/07/27 02:13:25;;;;;;;1999.90;999.90;;;;;;;9.47;100.00;94226.53;5005612;28;20235;-59
2023/07/27 02:16:13;;;;;;;1999.90;999.90;;;;;;;9.46;100.00;94222.28;5005594;28;20310;-59
2023/07/27 02:18:40;;;;;;;1999.90;999.90;;;;;;;9.46;100.00;94227.75;5006057;28;20175;-59
2023/07/27 02:21:07;;;;;;;1999.90;999.90;;;;;;;9.43;100.00;94225.88;5006056;28;20262;-60
2023/07/27 02:23:34;;;;;;;1999.90;999.90;;;;;;;9.43;100.00;94220.41;5005123;28;20199;-59
2023/07/27 02:26:00;;;;;;;1999.90;999.90;;;;;;;9.40;100.00;94217.78;5005555;28;20199;-59
2023/07/27 02:28:28;;;;;;;1999.90;999.90;;;;;;;9.39;100.00;94219.72;5005479;28;20270;-59
2023/07/27 02:30:54;;;;;;;1999.90;999.90;;;;;;;9.40;100.00;94217.78;5005207;28;20195;-59
2023/07/27 02:33:19;;;;;;;1999.90;999.90;;;;;;;9.39;100.00;94224.41;5005088;28;20199;-60
2023/07/27 02:35:45;;;;;;;1999.90;999.90;;;;;;;9.41;100.00;94222.81;5005475;28;20215;-60
2023/07/27 02:38:10;;;;;;;1999.90;999.90;;;;;;;9.36;100.00;94215.13;5004971;28;20249;-60
2023/07/27 02:40:35;;;;;;;1999.90;999.90;;;;;;;9.35;100.00;94223.72;5004974;28;20212;-60
2023/07/27 02:43:02;;;;;;;1999.90;999.90;;;;;;;9.34;100.00;94217.53;5005262;28;20263;-61
2023/07/27 02:45:27;;;;;;;1999.90;999.90;;;;;;;9.32;100.00;94219.88;5005129;28;20227;-59
2023/07/27 02:47:53;;;;;;;1999.90;999.90;;;;;;;9.32;100.00;94219.88;5004830;28;20196;-59
2023/07/27 02:50:18;;;;;;;1999.90;999.90;;;;;;;9.30;100.00;94222.28;5005482;28;20202;-60
2023/07/27 02:52:44;;;;;;;1999.90;999.90;;;;;;;9.33;100.00;94217.94;5004844;28;20218;-61
2023/07/27 02:55:10;;;;;;;1999.90;999.90;;;;;;;9.29;100.00;94215.28;5005332;28;20196;-60
2023/07/27 02:57:36;;;;;;;1999.90;999.90;;;;;;;9.27;100.00;94217.69;5004751;28;20188;-60
2023/07/27 03:00:02;;;;;;;1999.90;999.90;;;;;;;9.28;100.00;94219.19;5004634;28;20245;-60
2023/07/27 03:02:27;;;;;;;1999.90;999.90;;;;;;;9.27;100.00;94222.34;5004432;28;20200;-62
2023/07/27 03:04:53;;;;;;;1999.90;999.90;;;;;;;9.26;100.00;94218.09;5004829;28;20238;-61
2023/07/27 03:07:19;;;;;;;1999.90;999.90;;;;;;;9.26;100.00;94221.56;5004677;28;20198;-60
2023/07/27 03:09:49;;;;;;;1999.90;999.90;;;;;;;9.27;100.00;94223.13;5004873;28;20199;-60
2023/07/27 03:12:14;;;;;;;1999.90;999.90;;;;;;;9.27;100.00;94220.41;5004725;28;20192;-59
2023/07/27 03:14:40;;;;;;;1999.90;999.90;;;;;;;9.29;100.00;94223.47;5003881;28;20205;-60
2023/07/27 03:17:05;;;;;;;1999.90;999.90;;;;;;;9.29;100.00;94226.19;5004835;28;20195;-60
2023/07/27 03:19:30;;;;;;;1999.90;999.90;;;;;;;9.25;100.00;94222.78;5005194;28;20226;-60
2023/07/27 03:21:56;;;;;;;1999.90;999.90;;;;;;;9.27;100.00;94217.69;5004748;28;20298;-60
2023/07/27 03:24:21;;;;;;;1999.90;999.90;;;;;;;9.29;100.00;94219.97;5004327;28;20234;-60
2023/07/27 03:26:46;;;;;;;1999.90;999.90;;;;;;;9.28;100.00;94213.75;5004281;28;20219;-60
2023/07/27 03:29:12;;;;;;;1999.90;999.90;;;;;;;9.31;100.00;94212.91;5004377;28;20195;-60
2023/07/27 03:31:38;;;;;;;1999.90;999.90;;;;;;;9.30;100.00;94214.13;5004325;28;20199;-60
2023/07/27 03:34:03;;;;;;;1999.90;999.90;;;;;;;9.31;100.00;94199.28;5004543;28;20242;-62
2023/07/27 03:36:29;;;;;;;1999.90;999.90;;;;;;;9.32;100.00;94203.53;5004414;28;20199;-60
2023/07/27 03:38:54;;;;;;;1999.90;999.90;;;;;;;9.26;100.00;94193.59;5004251;28;20191;-60
2023/07/27 03:41:19;;;;;;;1999.90;999.90;;;;;;;9.28;100.00;94197.41;5004074;28;20291;-60
2023/07/27 03:43:45;;;;;;;1999.90;999.90;;;;;;;9.25;100.00;94198.25;5004376;28;20195;-60
2023/07/27 03:46:10;;;;;;;1999.90;999.90;;;;;;;9.26;100.00;94201.75;5004604;28;20198;-59
2023/07/27 03:48:36;;;;;;;1999.90;999.90;;;;;;;9.28;100.00;94196.63;5004128;28;20206;-60
2023/07/27 03:51:02;;;;;;;1999.90;999.90;;;;;;;9.29;100.00;94190.78;5004563;28;20243;-60
2023/07/27 03:53:28;;;;;;;1999.90;999.90;;;;;;;9.32;100.00;94200.03;5004386;28;20217;-60
2023/07/27 03:55:53;;;;;;;1999.90;999.90;;;;;;;9.33;100.00;94199.63;5004494;28;20192;-60
2023/07/27 03:58:19;;;;;;;1999.90;999.90;;;;;;;9.35;100.00;94186.34;5004040;28;20195;-60
2023/07/27 04:00:44;;;;;;;1999.90;999.90;;;;;;;9.50;100.00;94187.56;5004321;28;20215;-59
2023/07/27 04:03:10;;;;;;;1999.90;999.90;;;;;;;9.68;100.00;94177.00;5004083;28;20204;-59
2023/07/27 04:05:35;;;;;;;1999.90;999.90;;;;;;;9.88;100.00;94174.91;5004306;28;20254;-61
2023/07/27 04:08:01;;;;;;;1999.90;999.90;;;;;;;10.02;100.00;94169.09;5003925;28;20215;-59
2023/07/27 04:10:29;;;;;;;1999.90;999.90;;;;;;;10.13;100.00;94173.56;5004063;28;20196;-58
2023/07/27 04:12:54;;;;;;;1999.90;999.90;;;;;;;10.34;100.00;94167.53;5004515;28;20196;-58
2023/07/27 04:15:20;;;;;;;1999.90;999.90;;;;;;;10.56;100.00;94168.47;5004155;28;20194;-59
2023/07/27 04:17:45;;;;;;;1999.90;999.90;;;;;;;10.70;100.00;94173.53;5003831;28;20260;-59
2023/07/27 04:20:11;;;;;;;1999.90;999.90;;;;;;;10.74;100.00;94174.22;5003717;28;20203;-60
2023/07/27 04:22:36;;;;;;;1999.90;999.90;;;;;;;10.73;100.00;94183.56;5004314;28;20198;-59
2023/07/27 04:25:01;;;;;;;1999.90;999.90;;;;;;;11.00;100.00;94170.31;5004037;28;20204;-60
2023/07/27 04:27:27;;;;;;;1999.90;999.90;;;;;;;11.44;100.00;94166.59;5007827;28;20252;-59
2023/07/27 04:29:52;;;;;;;1999.90;999.90;;;;;;;11.65;100.00;94179.66;5007714;28;20212;-60
2023/07/27 04:32:18;;;;;;;1999.90;999.90;;;;;;;11.95;100.00;94187.25;5007359;28;20226;-60
2023/07/27 04:34:43;;;;;;;1999.90;999.90;;;;;;;11.93;100.00;94198.63;5007502;28;20203;-59
2023/07/27 04:37:08;;;;;;;1999.90;999.90;;;;;;;12.14;100.00;94224.53;5007387;28;20196;-59
2023/07/27 04:39:34;;;;;;;1999.90;999.90;;;;;;;12.38;100.00;94253.03;5007220;28;20211;-59
2023/07/27 04:41:59;;;;;;;1999.90;999.90;;;;;;;12.77;100.00;94272.41;5007292;28;20203;-59
2023/07/27 04:44:26;;;;;;;1999.90;999.90;;;;;;;12.89;100.00;94284.50;5007809;28;20258;-59
2023/07/27 04:46:52;;;;;;;1999.90;999.90;;;;;;;13.33;100.00;94258.66;5007257;28;20207;-59
2023/07/27 04:49:17;;;;;;;1999.90;999.90;;;;;;;13.70;100.00;94224.72;5006940;28;20259;-59
2023/07/27 04:51:43;;;;;;;1999.90;999.90;;;;;;;14.02;100.00;94205.00;5007003;28;20183;-59
2023/07/27 04:54:08;;;;;;;1999.90;999.90;;;;;;;14.36;100.00;94207.56;5007596;28;20196;-59
2023/07/27 04:56:33;;;;;;;1999.90;999.90;;;;;;;14.17;100.00;94282.81;5006845;28;20208;-59
2023/07/27 04:58:59;;;;;;;1999.90;999.90;;;;;;;13.70;100.00;94370.16;5007162;28;20208;-59
2023/07/27 05:01:24;;;;;;;1999.90;999.90;;;;;;;13.41;100.00;94390.81;5006785;28;20234;-59
2023/07/27 05:03:51;;;;;;;1999.90;999.90;;;;;;;13.01;100.00;94423.53;5006910;28;20203;-61
2023/07/27 05:06:16;;;;;;;1999.90;999.90;;;;;;;12.75;100.00;94409.06;5007054;28;20207;-60
2023/07/27 05:08:41;;;;;;;1999.90;999.90;;;;;;;12.97;100.00;94379.00;5006664;28;20211;-60
2023/07/27 05:11:07;;;;;;;1999.90;999.90;;;;;;;13.46;100.00;94376.50;5006613;28;20242;-60
2023/07/27 05:13:35;;;;;;;1999.90;999.90;;;;;;;13.78;100.00;94403.56;5006664;28;20207;-60
2023/07/27 05:16:02;;;;;;;1999.90;999.90;;;;;;;14.50;100.00;94443.19;5006691;28;20203;-60
2023/07/27 05:18:27;;;;;;;1999.90;999.90;;;;;;;15.26;100.00;94556.84;5006520;28;20203;-59
2023/07/27 05:20:54;;;;;;;1999.90;999.90;;;;;;;15.83;100.00;94724.06;5006600;28;20219;-59
2023/07/27 05:23:19;;;;;;;1999.90;999.90;;;;;;;16.16;100.00;94857.34;5006956;28;20168;-59
2023/07/27 05:25:46;;;;;;;1999.90;999.90;;;;;;;16.73;100.00;94915.81;5006950;28;20196;-59
2023/07/27 05:28:11;;;;;;;1999.90;999.90;;;;;;;17.01;100.00;94987.16;5006348;28;20250;-59
2023/07/27 05:30:36;;;;;;;1999.90;999.90;;;;;;;17.41;100.00;95020.28;5006726;28;20201;-60
2023/07/27 05:33:02;;;;;;;1999.90;999.90;;;;;;;17.82;100.00;95055.69;5006236;28;20200;-59
2023/07/27 05:35:28;;;;;;;1999.90;999.90;;;;;;;18.23;100.00;95063.41;5006049;28;20242;-59
2023/07/27 05:37:53;;;;;;;1999.90;999.90;;;;;;;18.39;100.00;95094.31;5005321;28;20208;-60
2023/07/27 05:40:18;;;;;;;1999.90;999.90;;;;;;;18.53;100.00;95098.44;5006012;28;20282;-59
2023/07/27 05:42:44;;;;;;;1999.90;999.90;;;;;;;18.24;100.00;95103.63;5006426;28;20275;-59
2023/07/27 05:45:09;;;;;;;1999.90;999.90;;;;;;;18.02;100.00;95108.53;5006545;28;20207;-60
2023/07/27 05:47:35;;;;;;;1999.90;999.90;;;;;;;18.29;100.00;95116.88;5005945;28;20213;-59
2023/07/27 05:50:00;;;;;;;1999.90;999.90;;;;;;;17.75;100.00;95111.22;5005926;28;20203;-62
2023/07/27 05:52:26;;;;;;;1999.90;999.90;;;;;;;17.48;100.00;95097.34;5005622;28;20184;-59
2023/07/27 05:54:51;;;;;;;1999.90;999.90;;;;;;;17.07;100.00;95090.22;5006133;28;20206;-60
2023/07/27 05:57:16;;;;;;;1999.90;999.90;;;;;;;16.84;100.00;95057.59;5006212;28;20206;-60
2023/07/27 05:59:42;;;;;;;1999.90;999.90;;;;;;;16.52;100.00;95054.47;5006345;28;20211;-60
2023/07/27 06:02:07;;;;;;;1999.90;999.90;;;;;;;16.53;100.00;95034.72;5006182;28;20203;-59
2023/07/27 06:04:33;;;;;;;1999.90;999.90;;;;;;;16.77;100.00;95035.03;5005827;28;20200;-60
2023/07/27 06:06:58;;;;;;;1999.90;999.90;;;;;;;17.03;100.00;95025.34;5005459;28;20204;-59
2023/07/27 06:09:24;;;;;;;1999.90;999.90;;;;;;;16.86;100.00;95046.88;5005369;28;20222;-59
2023/07/27 06:11:51;;;;;;;1999.90;999.90;;;;;;;16.84;100.00;95054.06;5005735;28;20254;-59
2023/07/27 06:14:16;;;;;;;1999.90;999.90;;;;;;;16.62;100.00;95048.59;5005336;28;20223;-59
2023/07/27 06:16:41;;;;;;;1999.90;999.90;;;;;;;16.53;100.00;95039.50;5005533;28;20203;-58
2023/07/27 06:19:07;;;;;;;1999.90;999.90;;;;;;;16.42;100.00;95018.59;5005210;28;20196;-60
2023/07/27 06:21:32;;;;;;;1999.90;999.90;;;;;;;16.49;100.00;95001.00;5005323;28;20210;-60
2023/07/27 06:23:58;;;;;;;1999.90;999.90;;;;;;;16.71;100.00;95001.00;5005747;28;20179;-58
2023/07/27 06:26:23;;;;;;;1999.90;999.90;;;;;;;16.70;100.00;95016.75;5005686;28;20206;-59
2023/07/27 06:28:48;;;;;;;1999.90;999.90;;;;;;;16.88;100.00;95021.59;5005619;28;20195;-58
2023/07/27 06:31:14;;;;;;;1999.90;999.90;;;;;;;17.20;100.00;95021.91;5005508;28;20290;-59
2023/07/27 06:33:39;;;;;;;1999.90;999.90;;;;;;;17.24;100.00;95043.81;5005780;28;20199;-59
2023/07/27 06:36:07;;;;;;;1999.90;999.90;;;;;;;17.82;100.00;95041.88;5005407;28;20204;-59
2023/07/27 06:38:33;;;;;;;1999.90;999.90;;;;;;;18.48;100.00;95066.66;5005089;28;20206;-59
2023/07/27 06:40:58;;;;;;;1999.90;999.90;;;;;;;18.58;100.00;95101.38;5005027;28;20235;-59
2023/07/27 06:43:23;;;;;;;1999.90;999.90;;;;;;;18.76;100.00;95117.97;5005531;28;20204;-59
2023/07/27 06:45:49;;;;;;;1999.90;999.90;;;;;;;19.35;100.00;95124.81;5005200;28;20214;-59
2023/07/27 06:48:15;;;;;;;1999.90;999.90;;;;;;;19.63;100.00;95153.94;5004698;28;20212;-59
2023/07/27 06:50:40;;;;;;;1999.90;999.90;;;;;;;19.94;100.00;95159.22;5005358;28;20238;-59
2023/07/27 06:53:05;;;;;;;1999.90;999.90;;;;;;;20.13;100.00;95163.44;5005005;28;20204;-60
2023/07/27 06:55:31;;;;;;;1999.90;999.90;;;;;;;20.50;100.00;95162.00;5005411;28;20219;-59
2023/07/27 06:57:57;;;;;;;1999.90;999.90;;;;;;;20.62;100.00;95170.09;5004855;28;20229;-59
2023/07/27 07:00:23;;;;;;;1999.90;999.90;;;;;;;20.95;100.00;95176.34;5005190;28;20214;-59
2023/07/27 07:02:48;;;;;;;1999.90;999.90;;;;;;;21.60;100.00;95181.56;5005215;28;20200;-59
2023/07/27 07:05:14;;;;;;;1999.90;999.90;;;;;;;22.15;100.00;95190.06;5004786;28;20270;-59
2023/07/27 07:07:39;;;;;;;1999.90;999.90;;;;;;;22.86;100.00;95189.53;5004806;28;20234;-59
2023/07/27 07:10:06;;;;;;;1999.90;999.90;;;;;;;22.94;100.00;95190.69;5004719;28;20200;-59
2023/07/27 07:12:31;;;;;;;1999.90;999.90;;;;;;;23.47;100.00;95193.81;5004339;28;20196;-59
2023/07/27 07:14:57;;;;;;;1999.90;999.90;;;;;;;23.47;100.00;95191.03;5004494;28;20227;-59
2023/07/27 07:17:22;;;;;;;1999.90;999.90;;;;;;;23.64;100.00;95197.53;5004477;28;20213;-59
2023/07/27 07:19:47;;;;;;;1999.90;999.90;;;;;;;23.87;100.00;95194.47;5004448;28;20226;-59
2023/07/27 07:22:13;;;;;;;1999.90;999.90;;;;;;;23.93;100.00;95200.13;5004120;28;20196;-59
2023/07/27 07:24:38;;;;;;;1999.90;999.90;;;;;;;23.93;100.00;95191.75;5004274;28;20235;-60
2023/07/27 07:27:04;;;;;;;1999.90;999.90;;;;;;;23.43;100.00;95201.63;5004786;28;20179;-59
2023/07/27 07:29:29;;;;;;;1999.90;999.90;;;;;;;23.50;100.00;95198.41;5004947;28;20195;-59
2023/07/27 07:31:54;;;;;;;1999.90;999.90;;;;;;;23.41;100.00;95190.97;5004461;28;20199;-59
2023/07/27 07:34:20;;;;;;;1999.90;999.90;;;;;;;23.19;100.00;95196.28;5004492;28;20365;-60
2023/07/27 07:36:45;;;;;;;1999.90;999.90;;;;;;;23.19;100.00;95189.97;5005194;28;20207;-59
2023/07/27 07:39:11;;;;;;;1999.90;999.90;;;;;;;23.22;100.00;95183.41;5004211;28;20227;-59
2023/07/27 07:41:36;;;;;;;1999.90;999.90;;;;;;;23.23;100.00;95187.75;5004577;28;20195;-59
2023/07/27 07:44:01;;;;;;;1999.90;999.90;;;;;;;23.80;100.00;95189.31;5004255;28;20291;-58
2023/07/27 07:46:27;;;;;;;1999.90;999.90;;;;;;;24.75;100.00;95178.34;5004067;28;20219;-59
2023/07/27 07:48:52;;;;;;;1999.90;999.90;;;;;;;25.38;100.00;95176.84;5004281;28;20273;-59
2023/07/27 07:51:17;;;;;;;1999.90;999.90;;;;;;;25.27;100.00;95170.41;5004371;28;20351;-59
2023/07/27 07:53:43;;;;;;;1999.90;999.90;;;;;;;25.94;100.00;95168.50;5004124;28;20200;-59
2023/07/27 07:56:16;;;;;;;1999.90;999.90;;;;;;;26.52;92.19;95161.84;5003998;28;20200;-62
2023/07/27 07:58:42;;;;;;;1999.90;999.90;;;;;;;26.50;89.64;95162.38;5004888;28;20199;-59
2023/07/27 08:01:08;;;;;;;1999.90;999.90;;;;;;;26.16;89.55;95163.69;5006118;28;20239;-61
2023/07/27 08:03:33;;;;;;;1999.90;999.90;;;;;;;25.92;93.86;95157.81;5008499;28;20203;-60
2023/07/27 08:05:58;;;;;;;1999.90;999.90;;;;;;;26.06;93.12;95154.03;5008203;28;20267;-59
2023/07/27 08:08:25;;;;;;;1999.90;999.90;;;;;;;26.27;86.25;95157.31;5007735;28;20203;-59
2023/07/27 08:10:50;;;;;;;1999.90;999.90;;;;;;;27.15;81.26;95160.66;5007667;28;20203;-60
2023/07/27 08:13:16;;;;;;;1999.90;999.90;;;;;;;26.96;76.74;95161.75;5007816;28;20195;-59
2023/07/27 08:15:50;;;;;;;1999.90;999.90;;;;;;;27.44;71.35;95156.44;5007714;28;20242;-59
2023/07/27 08:18:16;;;;;;;1999.90;999.90;;;;;;;27.04;67.86;95146.69;5007787;28;20266;-59
2023/07/27 08:20:41;;;;;;;1999.90;999.90;;;;;;;26.66;70.38;95144.75;5008210;28;20215;-59
2023/07/27 08:23:06;;;;;;;1999.90;999.90;;;;;;;27.38;70.79;95136.03;5007626;28;20203;-60
2023/07/27 08:25:39;;;;;;;1999.90;999.90;;;;;;;27.56;72.50;95141.81;5007525;28;20180;-60
2023/07/27 08:28:05;;;;;;;1999.90;999.90;;;;;;;27.70;69.55;95140.69;5008095;28;20200;-59
2023/07/27 08:30:32;;;;;;;1999.90;999.90;;;;;;;28.00;67.55;95133.06;5007657;28;20195;-59
2023/07/27 08:32:58;;;;;;;1999.90;999.90;;;;;;;28.15;62.12;95133.44;5007303;28;20207;-59
2023/07/27 08:35:23;;;;;;;1999.90;999.90;;;;;;;28.49;63.75;95125.50;5007277;28;20203;-59
2023/07/27 08:37:48;;;;;;;1999.90;999.90;;;;;;;28.08;63.76;95125.59;5007342;28;20195;-59
2023/07/27 08:40:13;;;;;;;1999.90;999.90;;;;;;;26.83;65.54;95125.84;5007232;28;20211;-60
2023/07/27 08:42:39;;;;;;;1999.90;999.90;;;;;;;26.68;66.89;95119.81;5007381;28;20202;-59
2023/07/27 08:45:06;;;;;;;1999.90;999.90;;;;;;;25.20;73.07;95120.56;5007381;28;20211;-59
2023/07/27 08:47:32;;;;;;;1999.90;999.90;;;;;;;25.10;78.25;95119.28;5007574;28;20203;-59
2023/07/27 08:49:58;;;;;;;1999.90;999.90;;;;;;;25.08;81.08;95116.22;5007292;28;20195;-59
2023/07/27 08:52:24;;;;;;;1999.90;999.90;;;;;;;25.52;79.05;95121.91;5007291;28;20199;-60
2023/07/27 08:54:49;;;;;;;1999.90;999.90;;;;;;;25.51;73.48;95114.81;5007572;28;20180;-59
2023/07/27 08:57:15;;;;;;;1999.90;999.90;;;;;;;25.72;75.93;95118.13;5007292;28;20267;-59
2023/07/27 08:59:42;;;;;;;1999.90;999.90;;;;;;;25.87;75.17;95113.81;5006974;28;20227;-59
2023/07/27 09:02:07;;;;;;;1999.90;999.90;;;;;;;26.36;68.13;95115.03;5006592;28;20203;-60
2023/07/27 09:04:32;;;;;;;1999.90;999.90;;;;;;;25.58;68.13;95108.72;5006958;28;20191;-59
2023/07/27 09:07:06;;;;;;;1999.90;999.90;;;;;;;25.91;71.02;95107.94;5007090;28;20238;-59
2023/07/27 09:09:32;;;;;;;1999.90;999.90;;;;;;;25.91;69.36;95107.94;5007166;28;20201;-59
2023/07/27 09:11:57;;;;;;;1999.90;999.90;;;;;;;26.43;68.93;95109.66;5005739;28;20203;-59
2023/07/27 09:14:23;;;;;;;1999.90;999.90;;;;;;;27.01;66.48;95108.44;5006482;28;20259;-60
2023/07/27 09:16:49;;;;;;;1999.90;999.90;;;;;;;26.89;63.83;95112.59;5006820;28;20202;-59
2023/07/27 09:19:18;;;;;;;1999.90;999.90;;;;;;;26.52;60.83;95117.78;5006753;28;20184;-59
2023/07/27 09:21:48;;;;;;;1999.90;999.90;;;;;;;26.65;59.69;95118.03;5006937;28;20204;-60
2023/07/27 09:24:16;;;;;;;1999.90;999.90;;;;;;;26.66;62.82;95122.34;5006445;28;20206;-59
2023/07/27 09:26:45;;;;;;;1999.90;999.90;;;;;;;27.14;59.85;95119.84;5006899;28;20238;-59
2023/07/27 09:29:12;;;;;;;1999.90;999.90;;;;;;;26.68;57.51;95121.84;5006548;28;20295;-60
2023/07/27 09:31:51;;;;;;;1999.90;999.90;;;;;;;26.33;59.97;95111.19;5006681;28;20203;-59
2023/07/27 09:34:19;;;;;;;1999.90;999.90;;;;;;;26.14;59.34;95104.63;5006532;28;20267;-59
2023/07/27 09:36:44;;;;;;;1999.90;999.90;;;;;;;26.02;63.24;95103.13;5006237;28;20215;-60
2023/07/27 09:39:10;;;;;;;1999.90;999.90;;;;;;;26.21;59.48;95100.53;5006340;28;20195;-60
2023/07/27 09:41:37;;;;;;;1999.90;999.90;;;;;;;26.13;62.31;95099.53;5006450;28;20200;-59
2023/07/27 09:44:03;;;;;;;1999.90;999.90;;;;;;;26.06;62.23;95089.63;5006135;28;20222;-59
2023/07/27 09:46:29;;;;;;;1999.90;999.90;;;;;;;25.26;66.29;95087.78;5006083;28;20231;-60
2023/07/27 09:48:58;;;;;;;1999.90;999.90;;;;;;;25.23;66.96;95083.22;5006510;28;20176;-59
2023/07/27 09:51:26;;;;;;;1999.90;999.90;;;;;;;25.04;65.58;95090.56;5006363;28;20195;-60
2023/07/27 09:53:52;;;;;;;1999.90;999.90;;;;;;;24.99;67.91;95086.47;5006235;28;20238;-59
2023/07/27 09:56:17;;;;;;;1999.90;999.90;;;;;;;25.12;67.28;95083.19;5005825;28;20203;-60
2023/07/27 09:58:47;;;;;;;1999.90;999.90;;;;;;;25.07;68.16;95069.97;5005727;28;20195;-60
2023/07/27 10:01:12;;;;;;;1999.90;999.90;;;;;;;24.92;66.21;95081.34;5005632;28;20278;-60
2023/07/27 10:03:38;;;;;;;1999.90;999.90;;;;;;;24.42;66.76;95076.84;5005780;28;20195;-60
2023/07/27 10:06:04;;;;;;;1999.90;999.90;;;;;;;24.35;67.75;95071.72;5006283;28;20196;-59
2023/07/27 10:08:31;;;;;;;1999.90;999.90;;;;;;;24.59;67.69;95069.31;5005791;28;20191;-60
2023/07/27 10:11:03;;;;;;;1999.90;999.90;;;;;;;25.57;67.27;95070.81;5006080;28;20204;-59
2023/07/27 10:13:28;;;;;;;1999.90;999.90;;;;;;;25.80;65.27;95069.53;5005934;28;20267;-61
2023/07/27 10:15:56;;;;;;;1999.90;999.90;;;;;;;25.85;63.06;95071.56;5005806;28;20187;-60
2023/07/27 10:18:29;;;;;;;1999.90;999.90;;;;;;;25.29;61.05;95073.59;5005928;28;20270;-59
2023/07/27 10:21:15;;;;;;;1999.90;999.90;;;;;;;24.91;63.83;95065.13;5005264;28;20253;-59
2023/07/27 10:23:52;;;;;;;1999.90;999.90;;;;;;;25.10;66.93;95066.91;5004590;28;20195;-59
2023/07/27 10:26:17;;;;;;;1999.90;999.90;;;;;;;25.09;68.79;95062.59;5005481;28;20199;-59
2023/07/27 10:28:48;;;;;;;1999.90;999.90;;;;;;;25.50;71.70;95060.13;5005289;28;20261;-59
2023/07/27 10:31:17;;;;;;;1999.90;999.90;;;;;;;25.02;70.86;95063.09;5005392;28;20202;-60
2023/07/27 10:34:01;;;;;;;1999.90;999.90;;;;;;;25.15;75.26;95060.59;5005027;28;20250;-59
2023/07/27 10:36:56;;;;;;;1999.90;999.90;;;;;;;25.15;75.28;95054.22;5005472;28;20211;-59
2023/07/27 10:39:28;;;;;;;1999.90;999.90;;;;;;;25.26;77.12;95049.41;5005049;28;20263;-60
2023/07/27 10:42:20;;;;;;;1999.90;999.90;;;;;;;24.85;74.42;95047.56;5004865;28;20199;-59
2023/07/27 10:44:49;;;;;;;1999.90;999.90;;;;;;;24.49;77.08;95037.28;5002326;28;20207;-59
2023/07/27 10:47:31;;;;;;;1999.90;999.90;;;;;;;24.80;76.53;95045.53;5005362;28;20215;-60
2023/07/27 10:49:58;;;;;;;1999.90;999.90;;;;;;;25.02;76.64;95034.41;5005296;28;20211;-60
2023/07/27 10:52:34;;;;;;;1999.90;999.90;;;;;;;25.33;78.67;95025.81;5005191;28;20275;-60